createdAt,value
2024-04-06T00:00:55.865Z,1.59
2024-04-06T00:01:55.940Z,1.58
2024-04-06T00:02:55.999Z,1.58
2024-04-06T00:03:56.079Z,1.58
2024-04-06T00:04:56.157Z,1.61
2024-04-06T00:05:56.239Z,1.61
2024-04-06T00:06:56.316Z,1.59
2024-04-06T00:08:06.017Z,1.58
2024-04-06T00:08:57.365Z,1.59
2024-04-06T00:09:56.355Z,1.59
2024-04-06T00:10:56.352Z,1.57
2024-04-06T00:11:56.358Z,1.60
2024-04-06T00:12:56.373Z,1.60
2024-04-06T00:13:56.361Z,1.60
2024-04-06T00:14:56.364Z,1.60
2024-04-06T00:15:56.379Z,1.59
2024-04-06T00:16:56.434Z,1.58
2024-04-06T00:17:56.524Z,1.61
2024-04-06T00:18:56.579Z,1.56
2024-04-06T00:19:56.648Z,1.59
2024-04-06T00:20:56.740Z,1.57
2024-04-06T00:21:56.803Z,1.58
2024-04-06T00:22:56.871Z,1.61
2024-04-06T00:23:56.930Z,1.54
2024-04-06T00:24:57.004Z,1.60
2024-04-06T00:25:57.067Z,1.61
2024-04-06T00:26:57.150Z,1.59
2024-04-06T00:27:57.211Z,1.52
2024-04-06T00:28:57.275Z,1.58
2024-04-06T00:29:57.331Z,1.58
2024-04-06T00:30:57.397Z,1.57
2024-04-06T00:31:57.447Z,1.58
2024-04-06T00:32:57.517Z,1.56
2024-04-06T00:33:57.591Z,1.58
2024-04-06T00:34:57.670Z,1.57
2024-04-06T00:35:57.757Z,1.58
2024-04-06T00:36:57.790Z,1.58
2024-04-06T00:37:57.875Z,1.54
2024-04-06T00:38:57.924Z,1.58
2024-04-06T00:39:57.975Z,1.56
2024-04-06T00:40:58.034Z,1.53
2024-04-06T00:41:58.113Z,1.54
2024-04-06T00:42:58.184Z,1.58
2024-04-06T00:44:00.139Z,1.55
2024-04-06T00:44:58.258Z,1.55
2024-04-06T00:45:58.262Z,1.58
2024-04-06T00:46:58.255Z,1.57
2024-04-06T00:47:58.261Z,1.57
2024-04-06T00:48:58.259Z,1.57
2024-04-06T00:49:58.262Z,1.56
2024-04-06T00:50:58.269Z,1.55
2024-04-06T00:51:58.265Z,1.54
2024-04-06T00:52:58.266Z,1.57
2024-04-06T00:53:58.265Z,1.55
2024-04-06T00:54:58.278Z,1.56
2024-04-06T00:55:58.283Z,1.56
2024-04-06T00:56:58.310Z,1.52
2024-04-06T00:57:58.280Z,1.52
2024-04-06T00:58:58.302Z,1.57
2024-04-06T00:59:58.276Z,1.53
2024-04-06T01:00:58.286Z,1.53
2024-04-06T01:02:04.990Z,1.60
2024-04-06T01:02:59.291Z,1.60
2024-04-06T01:03:58.303Z,1.60
2024-04-06T01:04:58.297Z,1.58
2024-04-06T01:05:58.322Z,1.54
2024-04-06T01:06:58.291Z,1.55
2024-04-06T01:07:58.312Z,1.56
2024-04-06T01:08:58.434Z,1.53
2024-04-06T01:09:58.293Z,1.52
2024-04-06T01:10:58.346Z,1.56
2024-04-06T01:11:58.396Z,1.55
2024-04-06T01:12:58.543Z,1.55
2024-04-06T01:13:58.528Z,1.56
2024-04-06T01:14:58.598Z,1.55
2024-04-06T01:15:58.633Z,1.53
2024-04-06T01:16:58.691Z,1.52
2024-04-06T01:17:58.738Z,1.52
2024-04-06T01:18:58.785Z,1.54
2024-04-06T01:19:58.827Z,1.53
2024-04-06T01:20:58.872Z,1.51
2024-04-06T01:21:58.933Z,1.55
2024-04-06T01:22:59.003Z,1.53
2024-04-06T01:23:59.069Z,1.49
2024-04-06T01:24:59.115Z,1.49
2024-04-06T01:25:59.182Z,1.51
2024-04-06T01:26:59.263Z,1.54
2024-04-06T01:27:59.327Z,1.53
2024-04-06T01:28:59.388Z,1.53
2024-04-06T01:29:59.469Z,1.54
2024-04-06T01:30:59.550Z,1.51
2024-04-06T01:31:59.579Z,1.50
2024-04-06T01:32:59.648Z,1.50
2024-04-06T01:33:59.712Z,1.48
2024-04-06T01:34:59.789Z,1.53
2024-04-06T01:35:59.820Z,1.51
2024-04-06T01:36:59.856Z,1.54
2024-04-06T01:37:59.915Z,1.51
2024-04-06T01:38:59.972Z,1.51
2024-04-06T01:40:00.043Z,1.53
2024-04-06T01:41:00.108Z,1.48
2024-04-06T01:42:00.189Z,1.48
2024-04-06T01:43:00.217Z,1.49
2024-04-06T01:44:00.260Z,1.49
2024-04-06T01:45:00.333Z,1.48
2024-04-06T01:46:00.347Z,1.52
2024-04-06T01:47:00.416Z,1.51
2024-04-06T01:48:00.439Z,1.49
2024-04-06T01:49:00.500Z,1.50
2024-04-06T01:50:00.575Z,1.52
2024-04-06T01:51:00.608Z,1.50
2024-04-06T01:52:00.662Z,1.50
2024-04-06T01:53:00.726Z,1.49
2024-04-06T01:54:00.773Z,1.51
2024-04-06T01:55:00.828Z,1.46
2024-04-06T01:56:00.860Z,1.46
2024-04-06T01:57:00.917Z,1.50
2024-04-06T01:58:00.970Z,1.50
2024-04-06T01:59:01.015Z,1.49
2024-04-06T02:00:01.046Z,1.50
2024-04-06T02:01:01.086Z,1.49
2024-04-06T02:02:01.136Z,1.51
2024-04-06T02:03:01.166Z,1.49
2024-04-06T02:04:01.214Z,1.48
2024-04-06T02:05:01.268Z,1.49
2024-04-06T02:06:01.303Z,1.45
2024-04-06T02:07:01.353Z,1.44
2024-04-06T02:08:01.383Z,1.46
2024-04-06T02:09:01.447Z,1.48
2024-04-06T02:10:01.576Z,1.48
2024-04-06T02:11:01.496Z,1.46
2024-04-06T02:12:01.595Z,1.50
2024-04-06T02:13:01.640Z,1.47
2024-04-06T02:14:01.698Z,1.48
2024-04-06T02:15:01.748Z,1.46
2024-04-06T02:16:01.811Z,1.44
2024-04-06T02:17:01.855Z,1.46
2024-04-06T02:18:01.890Z,1.46
2024-04-06T02:19:01.925Z,1.49
2024-04-06T02:20:01.999Z,1.45
2024-04-06T02:21:02.035Z,1.48
2024-04-06T02:22:02.095Z,1.47
2024-04-06T02:23:02.122Z,1.46
2024-04-06T02:24:02.190Z,1.46
2024-04-06T02:25:02.269Z,1.47
2024-04-06T02:26:02.282Z,1.45
2024-04-06T02:27:02.330Z,1.45
2024-04-06T02:28:02.395Z,1.47
2024-04-06T02:29:02.434Z,1.44
2024-04-06T02:30:02.511Z,1.43
2024-04-06T02:31:02.548Z,1.47
2024-04-06T02:32:02.610Z,1.43
2024-04-06T02:33:02.665Z,1.48
2024-04-06T02:34:02.713Z,1.44
2024-04-06T02:35:02.742Z,1.44
2024-04-06T02:36:02.770Z,1.46
2024-04-06T02:37:02.826Z,1.44
2024-04-06T02:38:02.884Z,1.43
2024-04-06T02:39:02.909Z,1.45
2024-04-06T02:40:02.972Z,1.46
2024-04-06T02:41:03.036Z,1.41
2024-04-06T02:42:03.069Z,1.45
2024-04-06T02:43:03.124Z,1.43
2024-04-06T02:44:03.180Z,1.45
2024-04-06T02:45:03.217Z,1.46
2024-04-06T02:46:03.306Z,1.43
2024-04-06T02:47:03.356Z,1.44
2024-04-06T02:48:03.355Z,1.46
2024-04-06T02:49:03.392Z,1.43
2024-04-06T02:50:03.448Z,1.43
2024-04-06T02:51:03.494Z,1.41
2024-04-06T02:52:03.539Z,1.43
2024-04-06T02:53:03.572Z,1.44
2024-04-06T02:54:03.666Z,1.44
2024-04-06T02:55:03.694Z,1.44
2024-04-06T02:56:03.739Z,1.43
2024-04-06T02:57:03.791Z,1.44
2024-04-06T02:58:03.820Z,1.42
2024-04-06T02:59:03.881Z,1.43
2024-04-06T03:00:03.953Z,1.42
2024-04-06T03:01:04.005Z,1.43
2024-04-06T03:02:04.050Z,1.41
2024-04-06T03:03:04.110Z,1.44
2024-04-06T03:04:04.161Z,1.43
2024-04-06T03:05:04.208Z,1.41
2024-04-06T03:06:04.254Z,1.42
2024-04-06T03:07:04.290Z,1.43
2024-04-06T03:08:04.351Z,1.42
2024-04-06T03:09:04.386Z,1.43
2024-04-06T03:10:04.430Z,1.43
2024-04-06T03:11:04.466Z,1.40
2024-04-06T03:12:04.515Z,1.44
2024-04-06T03:13:04.569Z,1.37
2024-04-06T03:14:04.602Z,1.42
2024-04-06T03:15:04.660Z,1.42
2024-04-06T03:16:04.691Z,1.46
2024-04-06T03:17:04.742Z,1.41
2024-04-06T03:18:04.774Z,1.38
2024-04-06T03:19:04.812Z,1.44
2024-04-06T03:20:04.831Z,1.40
2024-04-06T03:21:04.847Z,1.42
2024-04-06T03:22:04.872Z,1.41
2024-04-06T03:23:04.873Z,1.41
2024-04-06T03:24:04.921Z,1.44
2024-04-06T03:25:04.930Z,1.39
2024-04-06T03:26:04.973Z,1.43
2024-04-06T03:27:04.981Z,1.37
2024-04-06T03:28:05.051Z,1.41
2024-04-06T03:29:05.049Z,1.41
2024-04-06T03:30:05.073Z,1.42
2024-04-06T03:31:05.115Z,1.37
2024-04-06T03:32:05.168Z,1.42
2024-04-06T03:33:05.183Z,1.39
2024-04-06T03:34:05.232Z,1.37
2024-04-06T03:35:05.273Z,1.40
2024-04-06T03:36:05.302Z,1.42
2024-04-06T03:37:05.314Z,1.40
2024-04-06T03:38:05.326Z,1.37
2024-04-06T03:39:05.350Z,1.39
2024-04-06T03:40:05.385Z,1.40
2024-04-06T03:41:05.392Z,1.37
2024-04-06T03:42:05.389Z,1.39
2024-04-06T03:43:05.436Z,1.37
2024-04-06T03:44:05.399Z,1.38
2024-04-06T03:45:05.446Z,1.37
2024-04-06T03:46:05.432Z,1.37
2024-04-06T03:47:05.434Z,1.37
2024-04-06T03:48:05.467Z,1.38
2024-04-06T03:49:05.470Z,1.37
2024-04-06T03:50:05.474Z,1.39
2024-04-06T03:51:05.482Z,1.39
2024-04-06T03:52:05.501Z,1.39
2024-04-06T03:53:05.548Z,1.38
2024-04-06T03:54:05.540Z,1.38
2024-04-06T03:55:05.578Z,1.39
2024-04-06T03:56:05.603Z,1.35
2024-04-06T03:57:05.621Z,1.35
2024-04-06T03:58:05.643Z,1.38
2024-04-06T03:59:05.782Z,1.38
2024-04-06T04:00:05.687Z,1.37
2024-04-06T04:01:05.687Z,1.36
2024-04-06T04:02:05.710Z,1.38
2024-04-06T04:03:05.743Z,1.35
2024-04-06T04:04:05.730Z,1.38
2024-04-06T04:05:05.743Z,1.38
2024-04-06T04:06:05.749Z,1.34
2024-04-06T04:07:05.755Z,1.38
2024-04-06T04:08:05.778Z,1.34
2024-04-06T04:09:05.790Z,1.36
2024-04-06T04:10:05.780Z,1.40
2024-04-06T04:11:05.775Z,1.37
2024-04-06T04:12:05.780Z,1.35
2024-04-06T04:13:05.779Z,1.39
2024-04-06T04:14:05.794Z,1.39
2024-04-06T04:15:05.792Z,1.36
2024-04-06T04:16:05.791Z,1.37
2024-04-06T04:17:12.983Z,0.50
2024-04-06T04:18:12.990Z,0.50
2024-04-06T04:19:12.983Z,0.50
2024-04-06T04:20:12.967Z,0.50
2024-04-06T04:21:12.970Z,0.50
2024-04-06T04:22:12.970Z,0.51
2024-04-06T04:23:12.980Z,0.51
2024-04-06T04:24:12.976Z,0.50
2024-04-06T04:25:12.991Z,0.51
2024-04-06T04:26:12.997Z,0.50
2024-04-06T04:27:12.980Z,0.52
2024-04-06T04:28:12.982Z,0.51
2024-04-06T04:29:13.013Z,0.51
2024-04-06T04:30:12.991Z,0.51
2024-04-06T04:31:20.207Z,0.50
2024-04-06T04:32:20.210Z,0.50
2024-04-06T04:33:20.198Z,0.50
2024-04-06T04:34:20.314Z,0.50
2024-04-06T04:35:20.205Z,0.50
2024-04-06T04:36:20.191Z,0.50
2024-04-06T04:37:20.252Z,0.50
2024-04-06T04:38:20.208Z,0.50
2024-04-06T04:39:20.188Z,0.50
2024-04-06T04:40:20.214Z,0.50
2024-04-06T04:41:20.210Z,0.52
2024-04-06T04:42:20.201Z,0.50
2024-04-06T04:43:20.182Z,0.51
2024-04-06T04:44:35.704Z,0.51
2024-04-06T04:45:21.200Z,0.51
2024-04-06T04:46:20.188Z,0.51
2024-04-06T04:47:20.193Z,0.51
2024-04-06T04:48:20.205Z,0.51
2024-04-06T04:49:20.218Z,0.51
2024-04-06T04:50:20.206Z,0.50
2024-04-06T04:51:20.194Z,0.52
2024-04-06T04:52:20.219Z,0.51
2024-04-06T04:53:20.223Z,0.51
2024-04-06T04:54:20.200Z,0.51
2024-04-06T04:55:20.779Z,0.52
2024-04-06T04:56:20.202Z,0.51
2024-04-06T04:57:20.197Z,0.52
2024-04-06T04:58:20.206Z,0.51
2024-04-06T04:59:20.226Z,0.51
2024-04-06T05:00:20.240Z,0.51
2024-04-06T05:01:20.210Z,0.50
2024-04-06T05:02:20.219Z,0.51
2024-04-06T05:03:20.211Z,0.51
2024-04-06T05:04:20.211Z,0.51
2024-04-06T05:05:20.226Z,0.50
2024-04-06T05:06:20.219Z,0.51
2024-04-06T05:07:20.225Z,0.52
2024-04-06T05:08:20.219Z,0.51
2024-04-06T05:09:20.233Z,0.52
2024-04-06T05:10:20.233Z,0.51
2024-04-06T05:11:20.228Z,0.51
2024-04-06T05:12:20.226Z,0.52
2024-04-06T05:13:20.285Z,0.51
2024-04-06T05:14:20.240Z,0.51
2024-04-06T05:15:20.237Z,0.51
2024-04-06T05:16:20.232Z,0.52
2024-04-06T05:17:20.235Z,0.52
2024-04-06T05:18:20.234Z,0.52
2024-04-06T05:19:20.239Z,0.52
2024-04-06T05:20:20.250Z,0.51
2024-04-06T05:21:20.247Z,0.52
2024-04-06T05:22:20.248Z,0.51
2024-04-06T05:23:20.270Z,0.51
2024-04-06T05:24:20.254Z,0.52
2024-04-06T05:25:20.280Z,0.51
2024-04-06T05:26:20.255Z,0.51
2024-04-06T05:27:20.295Z,0.52
2024-04-06T05:28:20.258Z,0.51
2024-04-06T05:29:20.260Z,0.52
2024-04-06T05:30:20.262Z,0.50
2024-04-06T05:31:20.280Z,0.51
2024-04-06T05:32:20.271Z,0.51
2024-04-06T05:33:20.260Z,0.52
2024-04-06T05:34:20.270Z,0.51
2024-04-06T05:35:20.271Z,0.53
2024-04-06T05:36:20.308Z,0.52
2024-04-06T05:37:20.307Z,0.52
2024-04-06T05:38:20.343Z,0.52
2024-04-06T05:39:20.339Z,0.51
2024-04-06T05:40:20.375Z,0.51
2024-04-06T05:41:20.372Z,0.51
2024-04-06T05:42:20.382Z,0.53
2024-04-06T05:43:20.415Z,0.53
2024-04-06T05:44:20.451Z,0.52
2024-04-06T05:45:20.834Z,0.51
2024-04-06T05:46:20.533Z,0.52
2024-04-06T05:47:20.578Z,0.52
2024-04-06T05:48:20.619Z,0.51
2024-04-06T05:49:20.692Z,0.50
2024-04-06T05:50:20.708Z,0.51
2024-04-06T05:51:20.767Z,0.51
2024-04-06T05:52:20.812Z,0.51
2024-04-06T05:53:20.874Z,0.52
2024-04-06T05:54:20.886Z,0.51
2024-04-06T05:55:20.941Z,0.51
2024-04-06T05:56:20.984Z,0.52
2024-04-06T05:57:21.040Z,0.50
2024-04-06T05:58:21.090Z,0.50
2024-04-06T05:59:21.134Z,0.52
2024-04-06T06:00:21.205Z,0.52
2024-04-06T06:01:21.266Z,0.52
2024-04-06T06:02:21.347Z,0.52
2024-04-06T06:03:21.424Z,0.52
2024-04-06T06:04:21.480Z,0.51
2024-04-06T06:05:21.538Z,0.53
2024-04-06T06:06:21.594Z,0.51
2024-04-06T06:07:21.634Z,0.52
2024-04-06T06:08:21.718Z,0.51
2024-04-06T06:09:21.782Z,0.51
2024-04-06T06:10:21.855Z,0.52
2024-04-06T06:11:21.932Z,0.52
2024-04-06T06:12:21.979Z,0.52
2024-04-06T06:13:22.080Z,0.51
2024-04-06T06:14:23.820Z,0.52
2024-04-06T06:15:22.188Z,0.52
2024-04-06T06:16:22.256Z,0.52
2024-04-06T06:17:22.308Z,0.51
2024-04-06T06:18:22.377Z,0.51
2024-04-06T06:19:22.449Z,0.52
2024-04-06T06:20:22.531Z,0.51
2024-04-06T06:21:22.595Z,0.50
2024-04-06T06:22:22.702Z,0.51
2024-04-06T06:23:22.744Z,0.51
2024-04-06T06:24:22.818Z,0.51
2024-04-06T06:25:22.908Z,0.51
2024-04-06T06:26:22.964Z,0.51
2024-04-06T06:27:23.031Z,0.52
2024-04-06T06:28:23.098Z,0.52
2024-04-06T06:29:23.149Z,0.51
2024-04-06T06:30:23.224Z,0.51
2024-04-06T06:31:23.320Z,0.52
2024-04-06T06:32:23.411Z,0.51
2024-04-06T06:33:23.428Z,0.52
2024-04-06T06:34:23.498Z,0.52
2024-04-06T06:35:23.566Z,0.51
2024-04-06T06:38:25.670Z,0.52
2024-04-06T06:41:23.622Z,0.52
2024-04-06T06:42:23.636Z,0.52
2024-04-06T06:43:23.633Z,0.52
2024-04-06T06:44:23.623Z,0.52
2024-04-06T06:45:23.661Z,0.52
2024-04-06T06:46:23.645Z,0.52
2024-04-06T06:47:23.656Z,0.52
2024-04-06T06:48:23.661Z,0.51
2024-04-06T06:49:23.638Z,0.52
2024-04-06T06:50:23.660Z,0.52
2024-04-06T06:51:23.645Z,0.51
2024-04-06T06:52:23.634Z,0.51
2024-04-06T06:53:23.640Z,0.51
2024-04-06T06:54:23.643Z,0.51
2024-04-06T06:55:23.653Z,0.51
2024-04-06T06:56:23.667Z,0.51
2024-04-06T06:57:23.663Z,0.51
2024-04-06T06:58:23.650Z,0.51
2024-04-06T06:59:23.660Z,0.51
2024-04-06T07:00:23.668Z,0.50
2024-04-06T07:01:23.685Z,0.50
2024-04-06T07:02:23.659Z,0.50
2024-04-06T07:03:23.681Z,0.51
2024-04-06T07:04:23.682Z,0.51
2024-04-06T07:05:23.679Z,0.51
2024-04-06T07:07:23.696Z,0.52
2024-04-06T07:08:23.680Z,0.52
2024-04-06T07:09:23.703Z,0.50
2024-04-06T07:10:23.683Z,0.51
2024-04-06T07:11:23.708Z,0.51
2024-04-06T07:12:23.698Z,0.51
2024-04-06T07:13:23.682Z,0.51
2024-04-06T07:14:23.682Z,0.50
2024-04-06T07:15:23.703Z,0.52
2024-04-06T07:16:23.675Z,0.52
2024-04-06T07:17:26.491Z,0.51
2024-04-06T07:18:23.684Z,0.51
2024-04-06T07:19:23.685Z,0.51
2024-04-06T07:20:23.700Z,0.51
2024-04-06T07:21:23.759Z,0.51
2024-04-06T07:22:23.690Z,0.51
2024-04-06T07:23:23.698Z,0.51
2024-04-06T07:24:23.706Z,0.52
2024-04-06T07:25:23.701Z,0.52
2024-04-06T07:26:23.705Z,0.52
2024-04-06T07:27:23.731Z,0.52
2024-04-06T07:28:23.729Z,0.50
2024-04-06T07:29:23.709Z,0.52
2024-04-06T07:30:23.718Z,0.50
2024-04-06T07:31:23.719Z,0.51
2024-04-06T07:32:23.728Z,0.51
2024-04-06T07:33:23.702Z,0.51
2024-04-06T07:34:23.740Z,0.51
2024-04-06T07:35:23.728Z,0.52
2024-04-06T07:36:23.710Z,0.51
2024-04-06T07:37:23.694Z,0.51
2024-04-06T07:38:23.696Z,0.52
2024-04-06T07:39:23.714Z,0.52
2024-04-06T07:40:25.876Z,0.50
2024-04-06T07:41:23.754Z,0.52
2024-04-06T07:42:23.714Z,0.52
2024-04-06T07:43:23.716Z,0.50
2024-04-06T07:44:23.719Z,0.51
2024-04-06T07:45:23.782Z,0.50
2024-04-06T07:46:23.778Z,0.51
2024-04-06T07:47:23.848Z,0.52
2024-04-06T07:48:23.843Z,0.51
2024-04-06T07:49:23.861Z,0.50
2024-04-06T07:50:23.893Z,0.51
2024-04-06T07:51:23.914Z,0.52
2024-04-06T07:52:23.946Z,0.51
2024-04-06T07:53:23.980Z,0.52
2024-04-06T07:54:24.004Z,0.51
2024-04-06T07:55:24.043Z,0.50
2024-04-06T07:56:24.063Z,0.51
2024-04-06T07:57:24.089Z,0.51
2024-04-06T07:58:24.123Z,0.51
2024-04-06T07:59:24.165Z,0.51
2024-04-06T08:00:24.203Z,0.51
2024-04-06T08:01:24.205Z,0.51
2024-04-06T08:02:24.208Z,0.51
2024-04-06T08:03:24.239Z,0.50
2024-04-06T08:04:24.264Z,0.51
2024-04-06T08:05:24.289Z,0.51
2024-04-06T08:06:24.299Z,0.51
2024-04-06T08:07:24.320Z,0.50
2024-04-06T08:08:24.328Z,0.50
2024-04-06T08:09:24.386Z,0.51
2024-04-06T08:10:24.385Z,0.51
2024-04-06T08:11:24.400Z,0.51
2024-04-06T08:12:24.422Z,0.50
2024-04-06T08:13:24.418Z,0.52
2024-04-06T08:14:25.567Z,0.51
2024-04-06T08:15:24.453Z,0.50
2024-04-06T08:16:24.451Z,0.51
2024-04-06T08:17:24.450Z,0.52
2024-04-06T08:18:24.462Z,0.51
2024-04-06T08:19:24.609Z,0.50
2024-04-06T08:20:24.490Z,0.52
2024-04-06T08:21:24.479Z,0.51
2024-04-06T08:22:24.475Z,0.51
2024-04-06T08:23:24.487Z,0.51
2024-04-06T08:24:24.502Z,0.51
2024-04-06T08:25:24.530Z,0.51
2024-04-06T08:26:24.547Z,0.51
2024-04-06T08:27:24.600Z,0.50
2024-04-06T08:28:24.644Z,0.53
2024-04-06T08:29:24.694Z,0.51
2024-04-06T08:30:24.726Z,0.52
2024-04-06T08:31:24.778Z,0.52
2024-04-06T08:32:24.848Z,0.52
2024-04-06T08:33:24.894Z,0.51
2024-04-06T08:34:24.942Z,0.52
2024-04-06T08:35:25.007Z,0.51
2024-04-06T08:36:25.060Z,0.52
2024-04-06T08:37:25.147Z,0.52
2024-04-06T08:38:25.676Z,0.52
2024-04-06T08:39:25.255Z,0.52
2024-04-06T08:40:25.328Z,0.52
2024-04-06T08:41:25.387Z,0.51
2024-04-06T08:42:25.476Z,0.50
2024-04-06T08:43:25.547Z,0.51
2024-04-06T08:44:25.813Z,0.50
2024-04-06T08:45:25.725Z,0.52
2024-04-06T08:46:25.740Z,0.50
2024-04-06T08:47:25.805Z,0.52
2024-04-06T08:48:25.872Z,0.51
2024-04-06T08:49:25.943Z,0.51
2024-04-06T08:50:26.153Z,0.51
2024-04-06T08:51:26.094Z,0.51
2024-04-06T08:52:26.150Z,0.51
2024-04-06T08:53:26.206Z,0.51
2024-04-06T08:54:26.303Z,0.51
2024-04-06T08:55:26.341Z,0.51
2024-04-06T08:56:26.396Z,0.51
2024-04-06T08:57:26.465Z,0.50
2024-04-06T08:58:26.518Z,0.50
2024-04-06T08:59:26.603Z,0.51
2024-04-06T09:00:26.663Z,0.51
2024-04-06T09:01:26.692Z,0.52
2024-04-06T09:02:26.754Z,0.52
2024-04-06T09:03:26.806Z,0.50
2024-04-06T09:04:26.850Z,0.51
2024-04-06T09:05:26.923Z,0.50
2024-04-06T09:06:26.949Z,0.51
2024-04-06T09:07:27.001Z,0.52
2024-04-06T09:08:27.082Z,0.51
2024-04-06T09:09:27.095Z,0.51
2024-04-06T09:10:27.141Z,0.51
2024-04-06T09:11:27.183Z,0.52
2024-04-06T09:12:27.240Z,0.51
2024-04-06T09:13:27.273Z,0.50
2024-04-06T09:14:27.354Z,0.52
2024-04-06T09:15:27.353Z,0.51
2024-04-06T09:16:27.381Z,0.51
2024-04-06T09:17:27.519Z,0.52
2024-04-06T09:18:30.643Z,0.51
2024-04-06T09:19:27.464Z,0.52
2024-04-06T09:20:27.451Z,0.51
2024-04-06T09:21:27.467Z,0.51
2024-04-06T09:22:27.469Z,0.51
2024-04-06T09:23:27.460Z,0.51
2024-04-06T09:24:27.465Z,0.50
2024-04-06T09:25:27.474Z,0.51
2024-04-06T09:26:27.465Z,0.51
2024-04-06T09:27:27.473Z,0.51
2024-04-06T09:28:27.487Z,0.51
2024-04-06T09:29:27.468Z,0.51
2024-04-06T09:30:27.490Z,0.52
2024-04-06T09:31:27.470Z,0.51
2024-04-06T09:32:27.535Z,0.51
2024-04-06T09:33:27.485Z,0.51
2024-04-06T09:34:27.485Z,0.51
2024-04-06T09:35:27.513Z,0.51
2024-04-06T09:36:27.492Z,0.51
2024-04-06T09:37:27.490Z,0.50
2024-04-06T09:38:27.486Z,0.51
2024-04-06T09:39:27.488Z,0.50
2024-04-06T09:40:27.515Z,0.51
2024-04-06T09:41:27.533Z,0.51
2024-04-06T09:42:27.493Z,0.51
2024-04-06T09:43:27.521Z,0.51
2024-04-06T09:44:27.493Z,0.50
2024-04-06T09:45:27.506Z,0.51
2024-04-06T09:46:27.511Z,0.51
2024-04-06T09:47:27.558Z,0.51
2024-04-06T09:48:27.514Z,0.51
2024-04-06T09:49:27.515Z,0.51
2024-04-06T09:50:27.547Z,0.51
2024-04-06T09:51:27.529Z,0.51
2024-04-06T09:52:27.539Z,0.51
2024-04-06T09:53:27.550Z,0.51
2024-04-06T09:54:27.524Z,0.51
2024-04-06T09:55:27.540Z,0.51
2024-04-06T09:56:27.530Z,0.51
2024-04-06T09:57:27.533Z,0.51
2024-04-06T09:58:27.552Z,0.51
2024-04-06T09:59:27.530Z,0.51
2024-04-06T10:00:27.584Z,0.51
2024-04-06T10:01:27.550Z,0.51
2024-04-06T10:02:27.566Z,0.51
2024-04-06T10:03:27.552Z,0.51
2024-04-06T10:04:27.590Z,0.51
2024-04-06T10:05:27.577Z,0.51
2024-04-06T10:06:27.542Z,0.51
2024-04-06T10:07:27.563Z,0.51
2024-04-06T10:08:27.575Z,0.51
2024-04-06T10:09:27.549Z,0.51
2024-04-06T10:10:27.571Z,0.50
2024-04-06T10:11:27.578Z,0.51
2024-04-06T10:12:27.575Z,0.52
2024-04-06T10:13:27.570Z,0.51
2024-04-06T10:14:27.587Z,0.51
2024-04-06T10:15:27.558Z,0.51
2024-04-06T10:16:27.572Z,0.51
2024-04-06T10:17:27.616Z,0.52
2024-04-06T10:18:27.574Z,0.51
2024-04-06T10:19:27.581Z,0.51
2024-04-06T10:20:27.617Z,0.52
2024-04-06T10:21:27.587Z,0.52
2024-04-06T10:22:27.593Z,0.51
2024-04-06T10:23:27.600Z,0.52
2024-04-06T10:24:27.586Z,0.51
2024-04-06T10:25:27.589Z,0.51
2024-04-06T10:26:27.584Z,0.51
2024-04-06T10:27:27.612Z,0.51
2024-04-06T10:28:27.592Z,0.52
2024-04-06T10:29:27.594Z,0.52
2024-04-06T10:30:27.587Z,0.52
2024-04-06T10:31:39.234Z,0.52
2024-04-06T10:32:28.619Z,0.52
2024-04-06T10:33:27.620Z,0.52
2024-04-06T10:34:33.550Z,0.52
2024-04-06T10:35:28.611Z,0.52
2024-04-06T10:36:27.598Z,0.52
2024-04-06T10:37:27.626Z,0.52
2024-04-06T10:38:27.635Z,0.53
2024-04-06T10:39:27.603Z,0.54
2024-04-06T10:40:27.610Z,0.53
2024-04-06T10:41:27.636Z,0.53
2024-04-06T10:42:27.605Z,0.53
2024-04-06T10:43:27.610Z,0.53
2024-04-06T10:44:27.650Z,0.52
2024-04-06T10:45:27.711Z,0.52
2024-04-06T10:46:27.784Z,0.53
2024-04-06T10:47:27.897Z,0.53
2024-04-06T10:48:27.886Z,0.53
2024-04-06T10:49:27.988Z,0.53
2024-04-06T10:50:28.015Z,0.53
2024-04-06T10:51:28.089Z,0.53
2024-04-06T10:52:28.160Z,0.52
2024-04-06T10:53:28.227Z,0.52
2024-04-06T10:54:28.233Z,0.53
2024-04-06T10:55:28.305Z,0.52
2024-04-06T10:56:28.350Z,0.53
2024-04-06T10:57:28.401Z,0.52
2024-04-06T10:58:28.455Z,0.52
2024-04-06T10:59:28.495Z,0.53
2024-04-06T11:00:28.576Z,0.52
2024-04-06T11:01:28.613Z,0.52
2024-04-06T11:02:28.655Z,0.52
2024-04-06T11:03:28.715Z,0.52
2024-04-06T11:04:28.739Z,0.52
2024-04-06T11:05:28.799Z,0.53
2024-04-06T11:06:28.824Z,0.52
2024-04-06T11:07:28.884Z,0.52
2024-04-06T11:08:28.923Z,0.53
2024-04-06T11:09:28.966Z,0.52
2024-04-06T11:10:29.000Z,0.52
2024-04-06T11:11:29.040Z,0.53
2024-04-06T11:12:29.087Z,0.52
2024-04-06T11:13:29.131Z,0.53
2024-04-06T11:14:29.164Z,0.52
2024-04-06T11:15:29.198Z,0.53
2024-04-06T11:16:29.243Z,0.52
2024-04-06T11:17:29.337Z,0.53
2024-04-06T11:18:29.341Z,0.53
2024-04-06T11:19:29.345Z,0.53
2024-04-06T11:20:29.410Z,0.53
2024-04-06T11:21:29.414Z,0.52
2024-04-06T11:22:29.469Z,0.52
2024-04-06T11:23:29.501Z,0.52
2024-04-06T11:24:29.546Z,0.53
2024-04-06T11:25:29.574Z,0.53
2024-04-06T11:26:29.601Z,0.53
2024-04-06T11:27:29.669Z,0.53
2024-04-06T11:28:29.680Z,0.53
2024-04-06T11:29:29.730Z,0.53
2024-04-06T11:30:29.764Z,0.52
2024-04-06T11:31:29.786Z,0.53
2024-04-06T11:32:29.842Z,0.53
2024-04-06T11:33:29.893Z,0.53
2024-04-06T11:34:29.911Z,0.54
2024-04-06T11:35:29.943Z,0.52
2024-04-06T11:36:31.766Z,0.53
2024-04-06T11:37:30.021Z,0.54
2024-04-06T11:38:30.076Z,0.53
2024-04-06T11:39:30.103Z,0.54
2024-04-06T11:40:30.130Z,0.53
2024-04-06T11:41:30.164Z,0.53
2024-04-06T11:42:32.106Z,0.54
2024-04-06T11:43:30.253Z,0.54
2024-04-06T11:44:30.260Z,0.54
2024-04-06T11:45:30.295Z,0.53
2024-04-06T11:46:30.339Z,0.53
2024-04-06T11:47:30.409Z,0.54
2024-04-06T11:48:32.278Z,0.52
2024-04-06T11:49:30.434Z,0.54
2024-04-06T11:50:30.513Z,0.53
2024-04-06T11:51:30.546Z,0.54
2024-04-06T11:52:30.546Z,0.54
2024-04-06T11:53:30.570Z,0.55
2024-04-06T11:54:30.611Z,0.54
2024-04-06T11:55:30.658Z,0.54
2024-04-06T11:56:30.676Z,0.54
2024-04-06T11:57:30.704Z,0.54
2024-04-06T11:58:30.758Z,0.54
2024-04-06T11:59:30.791Z,0.53
2024-04-06T12:00:30.811Z,0.55
2024-04-06T12:01:30.909Z,0.54
2024-04-06T12:02:30.868Z,0.54
2024-04-06T12:03:30.900Z,0.53
2024-04-06T12:04:30.944Z,0.54
2024-04-06T12:05:30.979Z,0.54
2024-04-06T12:06:30.995Z,0.54
2024-04-06T12:07:31.035Z,0.55
2024-04-06T12:08:31.054Z,0.53
2024-04-06T12:09:31.092Z,0.54
2024-04-06T12:10:31.131Z,0.54
2024-04-06T12:11:31.149Z,0.53
2024-04-06T12:12:31.198Z,0.53
2024-04-06T12:13:31.194Z,0.54
2024-04-06T12:14:31.226Z,0.54
2024-04-06T12:15:31.256Z,0.55
2024-04-06T12:16:31.270Z,0.55
2024-04-06T12:17:31.329Z,0.54
2024-04-06T12:18:31.322Z,0.54
2024-04-06T12:19:31.383Z,0.54
2024-04-06T12:20:31.378Z,0.53
2024-04-06T12:21:31.393Z,0.55
2024-04-06T12:22:31.425Z,0.55
2024-04-06T12:23:31.458Z,0.53
2024-04-06T12:24:31.469Z,0.55
2024-04-06T12:25:31.493Z,0.55
2024-04-06T12:26:31.527Z,0.53
2024-04-06T12:27:31.536Z,0.54
2024-04-06T12:28:31.565Z,0.53
2024-04-06T12:29:31.599Z,0.55
2024-04-06T12:30:31.597Z,0.55
2024-04-06T12:31:31.597Z,0.55
2024-04-06T12:32:31.635Z,0.53
2024-04-06T12:33:31.633Z,0.54
2024-04-06T12:34:31.672Z,0.54
2024-04-06T12:35:31.666Z,0.56
2024-04-06T12:36:31.683Z,0.54
2024-04-06T12:37:31.696Z,0.55
2024-04-06T12:38:31.725Z,0.55
2024-04-06T12:39:31.711Z,0.54
2024-04-06T12:40:31.719Z,0.55
2024-04-06T12:41:31.792Z,0.54
2024-04-06T12:42:31.736Z,0.56
2024-04-06T12:43:31.789Z,0.54
2024-04-06T12:44:31.751Z,0.53
2024-04-06T12:45:31.780Z,0.55
2024-04-06T12:46:31.794Z,0.55
2024-04-06T12:47:31.827Z,0.55
2024-04-06T12:48:31.812Z,0.55
2024-04-06T12:49:31.830Z,0.54
2024-04-06T12:50:31.838Z,0.54
2024-04-06T12:51:31.834Z,0.55
2024-04-06T12:52:31.832Z,0.54
2024-04-06T12:53:31.835Z,0.54
2024-04-06T12:54:31.865Z,0.54
2024-04-06T12:55:31.915Z,0.55
2024-04-06T12:56:31.877Z,0.56
2024-04-06T12:57:31.868Z,0.55
2024-04-06T12:58:31.917Z,0.54
2024-04-06T12:59:31.897Z,0.55
2024-04-06T13:00:31.951Z,0.55
2024-04-06T13:01:31.890Z,0.54
2024-04-06T13:02:31.916Z,0.55
2024-04-06T13:03:31.945Z,0.56
2024-04-06T13:04:31.899Z,0.55
2024-04-06T13:05:31.931Z,0.55
2024-04-06T13:06:31.945Z,0.56
2024-04-06T13:07:31.902Z,0.56
2024-04-06T13:08:31.922Z,0.56
2024-04-06T13:09:31.907Z,0.55
2024-04-06T13:10:31.929Z,0.55
2024-04-06T13:11:31.920Z,0.55
2024-04-06T13:12:31.929Z,0.55
2024-04-06T13:13:31.933Z,0.55
2024-04-06T13:14:31.949Z,0.56
2024-04-06T13:15:31.944Z,0.55
2024-04-06T13:16:31.953Z,0.56
2024-04-06T13:17:31.968Z,0.56
2024-04-06T13:18:31.954Z,0.55
2024-04-06T13:19:31.989Z,0.56
2024-04-06T13:20:31.974Z,0.56
2024-04-06T13:21:31.972Z,0.56
2024-04-06T13:22:31.989Z,0.56
2024-04-06T13:23:31.990Z,0.55
2024-04-06T13:24:31.992Z,0.56